Time;durP1;ratioP1;P1;durP2;ratioP2;P2;SDS_P1;SDS_P2;PMS_P1;PMS_P2;Temp;Humidity;BMP_temperature;BMP_pressure;BME280_temperature;BME280_humidity;BME280_pressure;Samples;Min_cycle;Max_cycle;Signal;HPM_P1;HPM_P2
2023/07/04 00:01:15;;;;;;;7.68;1.17;;;;;;;;;;4883646;29;20947;-62
2023/07/04 00:03:42;;;;;;;4.47;1.40;;;;;;;;;;4882766;29;20024;-62
2023/07/04 00:06:10;;;;;;;3.78;0.95;;;;;;;;;;4880658;29;20051;-64
2023/07/04 00:08:36;;;;;;;4.97;1.15;;;;;;;;;;4882289;29;20048;-64
2023/07/04 00:11:03;;;;;;;7.38;1.33;;;;;;;;;;4882140;29;20041;-64
2023/07/04 00:13:31;;;;;;;8.52;1.75;;;;;;;;;;4882044;29;21012;-63
2023/07/04 00:15:57;;;;;;;5.13;1.25;;;;;;;;;;4866927;29;20048;-62
2023/07/04 00:18:25;;;;;;;5.72;1.20;;;;;;;;;;4882432;29;20040;-62
2023/07/04 00:20:54;;;;;;;6.53;1.30;;;;;;;;;;4883050;29;20064;-64
2023/07/04 00:23:26;;;;;;;3.72;1.10;;;;;;;;;;4881382;29;20684;-65
2023/07/04 00:25:52;;;;;;;5.47;0.98;;;;;;;;;;4881855;29;20035;-64
2023/07/04 00:28:21;;;;;;;8.82;1.52;;;;;;;;;;4881900;29;21884;-62
2023/07/04 00:30:47;;;;;;;7.05;1.27;;;;;;;;;;4882671;29;20083;-62
2023/07/04 00:33:13;;;;;;;5.43;1.33;;;;;;;;;;4881922;29;20043;-62
2023/07/04 00:35:40;;;;;;;5.03;1.30;;;;;;;;;;4882717;29;20040;-62
2023/07/04 00:38:06;;;;;;;5.97;1.45;;;;;;;;;;4881926;29;20032;-62
2023/07/04 00:40:32;;;;;;;9.25;1.70;;;;;;;;;;4882822;29;21866;-62
2023/07/04 00:43:03;;;;;;;8.82;1.33;;;;;;;;;;4883273;29;20061;-62
2023/07/04 00:45:35;;;;;;;5.60;1.38;;;;;;;;;;4881088;29;20032;-62
2023/07/04 00:48:03;;;;;;;4.47;0.90;;;;;;;;;;4882325;29;20893;-63
2023/07/04 00:50:39;;;;;;;4.70;1.00;;;;;;;;;;4881552;29;20088;-63
2023/07/04 00:53:07;;;;;;;3.50;0.80;;;;;;;;;;4881446;29;20032;-62
2023/07/04 00:55:37;;;;;;;5.85;1.08;;;;;;;;;;4866211;29;20040;-62
2023/07/04 00:58:04;;;;;;;9.68;1.70;;;;;;;;;;4882126;29;20668;-62
2023/07/04 01:00:30;;;;;;;6.53;1.73;;;;;;;;;;4880343;29;20040;-63
2023/07/04 01:03:02;;;;;;;5.70;1.60;;;;;;;;;;4881448;29;20085;-63
2023/07/04 01:05:41;;;;;;;4.15;1.42;;;;;;;;;;4881993;29;20032;-63
2023/07/04 01:08:12;;;;;;;9.40;1.92;;;;;;;;;;4882209;29;20040;-63
2023/07/04 01:10:42;;;;;;;7.05;1.20;;;;;;;;;;4881531;29;21831;-63
2023/07/04 01:13:27;;;;;;;5.45;1.20;;;;;;;;;;4882283;29;20032;-63
2023/07/04 01:15:53;;;;;;;5.40;0.95;;;;;;;;;;4881827;29;21427;-63
2023/07/04 01:18:19;;;;;;;6.68;1.42;;;;;;;;;;4881555;29;20084;-63
2023/07/04 01:20:46;;;;;;;7.88;1.77;;;;;;;;;;4881993;29;20032;-63
2023/07/04 01:23:48;;;;;;;6.35;1.60;;;;;;;;;;4864809;29;20119;-62
2023/07/04 01:26:18;;;;;;;6.07;1.27;;;;;;;;;;4824322;29;20711;-62
2023/07/04 01:28:44;;;;;;;4.30;1.40;;;;;;;;;;4871757;29;20059;-63
2023/07/04 01:31:10;;;;;;;5.55;1.20;;;;;;;;;;4880430;29;20071;-63
2023/07/04 01:33:40;;;;;;;9.90;1.92;;;;;;;;;;4881405;29;20036;-63
2023/07/04 01:36:09;;;;;;;7.78;1.20;;;;;;;;;;4881548;29;20508;-63
2023/07/04 01:38:35;;;;;;;6.30;1.20;;;;;;;;;;4880578;29;20043;-63
2023/07/04 01:41:01;;;;;;;4.38;1.73;;;;;;;;;;4881802;29;20032;-63
2023/07/04 01:43:27;;;;;;;6.00;1.27;;;;;;;;;;4879330;29;20099;-63
2023/07/04 01:45:53;;;;;;;7.95;1.20;;;;;;;;;;4880593;29;20048;-63
2023/07/04 01:48:19;;;;;;;5.95;1.40;;;;;;;;;;4879834;29;20040;-63
2023/07/04 01:50:46;;;;;;;7.72;1.63;;;;;;;;;;4881263;29;20131;-63
2023/07/04 01:53:12;;;;;;;7.45;1.80;;;;;;;;;;4880028;29;20044;-63
2023/07/04 01:55:38;;;;;;;4.93;1.48;;;;;;;;;;4880867;29;20139;-63
2023/07/04 01:58:04;;;;;;;7.10;1.77;;;;;;;;;;4879762;29;20123;-63
2023/07/04 02:00:31;;;;;;;8.40;1.85;;;;;;;;;;4879906;29;20047;-63
2023/07/04 02:02:57;;;;;;;8.80;2.10;;;;;;;;;;4878827;29;20047;-63
2023/07/04 02:05:23;;;;;;;8.77;1.85;;;;;;;;;;4880302;29;20108;-63
2023/07/04 02:07:49;;;;;;;9.65;1.98;;;;;;;;;;4879240;29;20043;-63
2023/07/04 02:10:16;;;;;;;5.80;1.55;;;;;;;;;;4879097;29;20031;-63
2023/07/04 02:12:42;;;;;;;6.65;1.92;;;;;;;;;;4880302;29;20036;-63
2023/07/04 02:15:08;;;;;;;6.07;1.23;;;;;;;;;;4880246;29;20036;-63
2023/07/04 02:17:34;;;;;;;9.57;1.70;;;;;;;;;;4879211;29;20044;-63
2023/07/04 02:20:00;;;;;;;5.80;1.30;;;;;;;;;;4880036;29;20048;-63
2023/07/04 02:22:26;;;;;;;6.97;1.83;;;;;;;;;;4879219;29;20048;-63
2023/07/04 02:24:52;;;;;;;5.95;1.65;;;;;;;;;;4877915;29;20036;-63
2023/07/04 02:27:18;;;;;;;4.55;1.55;;;;;;;;;;4863531;29;20047;-63
2023/07/04 02:29:48;;;;;;;4.97;1.23;;;;;;;;;;4864360;29;20040;-62
2023/07/04 02:32:14;;;;;;;4.15;1.50;;;;;;;;;;4878358;29;20091;-62
2023/07/04 02:34:40;;;;;;;6.72;1.40;;;;;;;;;;4880089;29;20923;-62
2023/07/04 02:37:06;;;;;;;5.45;1.60;;;;;;;;;;4878553;29;20036;-62
2023/07/04 02:39:32;;;;;;;4.72;1.75;;;;;;;;;;4879461;29;20047;-62
2023/07/04 02:41:58;;;;;;;6.07;1.48;;;;;;;;;;4879455;29;21063;-62
2023/07/04 02:44:25;;;;;;;5.47;1.50;;;;;;;;;;4879987;29;20484;-62
2023/07/04 02:46:51;;;;;;;6.30;1.40;;;;;;;;;;4879432;29;20044;-62
2023/07/04 02:49:17;;;;;;;6.30;1.52;;;;;;;;;;4880216;29;21781;-62
2023/07/04 02:51:46;;;;;;;6.40;1.80;;;;;;;;;;4880054;29;20032;-62
2023/07/04 02:54:12;;;;;;;10.80;1.90;;;;;;;;;;4880301;29;20135;-63
2023/07/04 02:56:38;;;;;;;8.23;1.67;;;;;;;;;;4862963;29;20127;-63
2023/07/04 02:59:04;;;;;;;5.43;1.42;;;;;;;;;;4879998;29;20039;-63
2023/07/04 03:01:30;;;;;;;5.78;1.40;;;;;;;;;;4879649;29;20032;-63
2023/07/04 03:03:56;;;;;;;9.55;1.75;;;;;;;;;;4880178;29;20082;-63
2023/07/04 03:06:22;;;;;;;6.95;1.88;;;;;;;;;;4878915;29;20412;-63
2023/07/04 03:08:48;;;;;;;5.03;1.38;;;;;;;;;;4880412;29;20541;-63
2023/07/04 03:11:14;;;;;;;6.25;1.50;;;;;;;;;;4879774;29;20036;-63
2023/07/04 03:13:40;;;;;;;9.27;1.30;;;;;;;;;;4879579;29;20063;-63
2023/07/04 03:16:07;;;;;;;4.07;1.20;;;;;;;;;;4879857;29;21812;-63
2023/07/04 03:18:33;;;;;;;6.95;1.50;;;;;;;;;;4880787;29;20046;-63
2023/07/04 03:21:00;;;;;;;4.20;1.65;;;;;;;;;;4879530;29;20681;-63
2023/07/04 03:23:26;;;;;;;2.15;1.10;;;;;;;;;;4881713;29;20148;-63
2023/07/04 03:25:52;;;;;;;6.00;1.20;;;;;;;;;;4881699;29;20115;-63
2023/07/04 03:28:18;;;;;;;3.70;1.27;;;;;;;;;;4881162;29;20079;-63
2023/07/04 03:30:44;;;;;;;4.63;1.27;;;;;;;;;;4881476;29;20083;-63
2023/07/04 03:33:10;;;;;;;4.97;1.40;;;;;;;;;;4881474;29;20047;-63
2023/07/04 03:35:40;;;;;;;4.40;1.00;;;;;;;;;;4882582;29;20044;-63
2023/07/04 03:38:06;;;;;;;5.65;1.77;;;;;;;;;;4881795;29;20036;-63
2023/07/04 03:40:32;;;;;;;6.35;1.10;;;;;;;;;;4881664;29;20993;-63
2023/07/04 03:42:59;;;;;;;3.55;1.10;;;;;;;;;;4881314;29;20067;-63
2023/07/04 03:45:25;;;;;;;2.85;0.98;;;;;;;;;;4880936;29;20087;-63
2023/07/04 03:47:51;;;;;;;4.00;0.98;;;;;;;;;;4881255;29;20043;-63
2023/07/04 03:50:17;;;;;;;2.42;0.90;;;;;;;;;;4881142;29;20045;-63
2023/07/04 03:52:43;;;;;;;5.72;1.02;;;;;;;;;;4880272;29;20044;-63
2023/07/04 03:55:09;;;;;;;7.45;1.30;;;;;;;;;;4880878;29;20120;-63
2023/07/04 03:57:35;;;;;;;4.53;1.40;;;;;;;;;;4883147;29;20033;-63
2023/07/04 04:00:04;;;;;;;2.70;0.93;;;;;;;;;;4882079;29;20036;-64
2023/07/04 04:02:30;;;;;;;2.85;0.90;;;;;;;;;;4882566;29;20029;-63
2023/07/04 04:04:56;;;;;;;5.40;1.35;;;;;;;;;;4882515;29;20036;-63
2023/07/04 04:07:23;;;;;;;4.72;1.00;;;;;;;;;;4882862;29;20115;-63
2023/07/04 04:09:49;;;;;;;4.75;0.95;;;;;;;;;;4885596;29;20283;-63
2023/07/04 04:12:15;;;;;;;5.50;1.38;;;;;;;;;;4885426;29;20058;-63
2023/07/04 04:14:41;;;;;;;5.38;1.27;;;;;;;;;;4884978;29;20099;-63
2023/07/04 04:17:07;;;;;;;4.43;1.30;;;;;;;;;;4886185;29;20047;-63
2023/07/04 04:19:34;;;;;;;4.75;1.10;;;;;;;;;;4886103;29;20046;-63
2023/07/04 04:22:00;;;;;;;5.05;1.17;;;;;;;;;;4882742;29;20052;-63
2023/07/04 04:24:26;;;;;;;3.35;0.85;;;;;;;;;;4883076;29;21410;-63
2023/07/04 04:26:52;;;;;;;5.13;0.90;;;;;;;;;;4883701;29;20147;-63
2023/07/04 04:29:19;;;;;;;5.15;1.00;;;;;;;;;;4881801;29;20044;-63
2023/07/04 04:31:46;;;;;;;2.25;0.90;;;;;;;;;;4882247;29;20050;-63
2023/07/04 04:34:12;;;;;;;6.22;1.10;;;;;;;;;;4881063;29;20055;-63
2023/07/04 04:36:38;;;;;;;3.38;1.20;;;;;;;;;;4880927;29;20062;-63
2023/07/04 04:39:05;;;;;;;5.55;1.55;;;;;;;;;;4881220;29;20044;-63
2023/07/04 04:41:31;;;;;;;3.97;1.17;;;;;;;;;;4882405;29;21017;-63
2023/07/04 04:43:58;;;;;;;4.40;1.10;;;;;;;;;;4882440;29;20734;-63
2023/07/04 04:46:24;;;;;;;7.20;1.33;;;;;;;;;;4880782;29;20048;-63
2023/07/04 04:48:51;;;;;;;6.75;1.65;;;;;;;;;;4881482;29;20150;-63
2023/07/04 04:51:18;;;;;;;5.47;1.30;;;;;;;;;;4882865;29;20043;-63
2023/07/04 04:53:46;;;;;;;6.53;1.80;;;;;;;;;;4883038;29;20024;-63
2023/07/04 04:56:13;;;;;;;3.67;1.55;;;;;;;;;;4882352;29;20051;-63
2023/07/04 04:58:45;;;;;;;6.70;1.35;;;;;;;;;;4882533;29;20408;-63
2023/07/04 05:01:23;;;;;;;5.53;1.37;;;;;;;;;;4882671;29;20117;-63
2023/07/04 05:03:53;;;;;;;3.47;1.40;;;;;;;;;;4883425;29;20278;-63
2023/07/04 05:06:20;;;;;;;4.70;1.45;;;;;;;;;;4882463;29;20111;-63
2023/07/04 05:08:46;;;;;;;5.43;1.55;;;;;;;;;;4883410;29;20414;-63
2023/07/04 05:11:13;;;;;;;6.03;1.50;;;;;;;;;;4881587;29;20412;-63
2023/07/04 05:13:39;;;;;;;5.18;1.60;;;;;;;;;;4882610;29;20040;-63
2023/07/04 05:16:07;;;;;;;6.03;1.50;;;;;;;;;;4882641;29;21226;-63
2023/07/04 05:18:34;;;;;;;5.63;1.67;;;;;;;;;;4881541;29;20067;-64
2023/07/04 05:21:08;;;;;;;5.53;1.42;;;;;;;;;;4883093;29;20078;-63
2023/07/04 05:23:36;;;;;;;8.88;2.20;;;;;;;;;;4881988;29;20043;-63
2023/07/04 05:26:03;;;;;;;7.57;2.00;;;;;;;;;;4881736;29;20035;-63
2023/07/04 05:28:30;;;;;;;5.07;1.50;;;;;;;;;;4881626;29;20043;-63
2023/07/04 05:31:00;;;;;;;5.28;1.70;;;;;;;;;;4881916;29;20143;-63
2023/07/04 05:33:26;;;;;;;6.80;1.83;;;;;;;;;;4880810;29;20051;-63
2023/07/04 05:35:52;;;;;;;6.72;1.92;;;;;;;;;;4882021;29;20044;-63
2023/07/04 05:38:18;;;;;;;6.43;1.80;;;;;;;;;;4880774;29;20080;-63
2023/07/04 05:40:44;;;;;;;7.38;2.40;;;;;;;;;;4882091;29;20778;-63
2023/07/04 05:43:10;;;;;;;6.80;2.38;;;;;;;;;;4882058;29;20712;-63
2023/07/04 05:45:36;;;;;;;8.23;1.77;;;;;;;;;;4881887;29;20048;-63
2023/07/04 05:48:02;;;;;;;5.82;1.70;;;;;;;;;;4865979;29;21044;-63
2023/07/04 05:50:28;;;;;;;4.50;1.90;;;;;;;;;;4881468;29;20476;-63
2023/07/04 05:52:54;;;;;;;6.28;1.73;;;;;;;;;;4882082;29;20603;-63
2023/07/04 05:55:20;;;;;;;4.18;1.42;;;;;;;;;;4880682;29;21630;-62
2023/07/04 05:57:46;;;;;;;8.65;1.48;;;;;;;;;;4882071;29;22095;-62
2023/07/04 06:00:13;;;;;;;12.52;1.88;;;;;;;;;;4882786;29;21443;-63
2023/07/04 06:02:39;;;;;;;6.75;1.50;;;;;;;;;;4880843;29;20043;-63
2023/07/04 06:05:06;;;;;;;6.65;1.50;;;;;;;;;;4880874;29;20500;-63
2023/07/04 06:07:32;;;;;;;3.65;1.40;;;;;;;;;;4881613;29;20160;-63
2023/07/04 06:09:58;;;;;;;6.28;1.25;;;;;;;;;;4881548;29;20772;-63
2023/07/04 06:12:24;;;;;;;5.55;1.38;;;;;;;;;;4881494;29;20131;-63
2023/07/04 06:14:50;;;;;;;6.85;1.65;;;;;;;;;;4881092;29;20037;-63
2023/07/04 06:17:16;;;;;;;5.70;1.27;;;;;;;;;;4881287;29;20055;-64
2023/07/04 06:19:42;;;;;;;4.97;1.48;;;;;;;;;;4880998;29;20035;-63
2023/07/04 06:22:08;;;;;;;5.55;1.30;;;;;;;;;;4881395;29;20067;-63
2023/07/04 06:24:36;;;;;;;4.68;1.20;;;;;;;;;;4881681;29;20119;-63
2023/07/04 06:27:04;;;;;;;6.63;1.83;;;;;;;;;;4881573;29;20036;-63
2023/07/04 06:29:30;;;;;;;6.20;1.45;;;;;;;;;;4881208;29;20044;-63
2023/07/04 06:31:57;;;;;;;5.78;1.50;;;;;;;;;;4871990;29;20492;-63
2023/07/04 06:34:23;;;;;;;8.60;1.02;;;;;;;;;;4874458;29;20115;-63
2023/07/04 06:36:49;;;;;;;5.28;1.40;;;;;;;;;;4875658;29;20040;-63
2023/07/04 06:39:15;;;;;;;6.18;1.30;;;;;;;;;;4877092;29;20046;-63
2023/07/04 06:41:41;;;;;;;4.72;1.10;;;;;;;;;;4875927;29;20123;-63
2023/07/04 06:44:07;;;;;;;6.45;1.60;;;;;;;;;;4877329;29;21004;-63
2023/07/04 06:46:33;;;;;;;4.68;1.02;;;;;;;;;;4875734;29;20032;-63
2023/07/04 06:48:59;;;;;;;5.63;1.40;;;;;;;;;;4880400;29;20048;-63
2023/07/04 06:51:29;;;;;;;3.33;1.10;;;;;;;;;;4871466;29;20051;-63
2023/07/04 06:53:55;;;;;;;7.20;1.70;;;;;;;;;;4874164;29;20500;-63
2023/07/04 06:56:22;;;;;;;5.90;1.25;;;;;;;;;;4859242;29;21207;-63
2023/07/04 06:58:49;;;;;;;5.35;1.20;;;;;;;;;;4875709;29;20080;-63
2023/07/04 07:01:16;;;;;;;6.13;1.45;;;;;;;;;;4874189;29;20036;-63
2023/07/04 07:03:42;;;;;;;9.45;1.35;;;;;;;;;;4876010;29;20046;-63
2023/07/04 07:06:09;;;;;;;10.38;1.40;;;;;;;;;;4874864;29;20071;-63
2023/07/04 07:08:36;;;;;;;5.85;1.75;;;;;;;;;;4874272;29;20496;-64
2023/07/04 07:11:06;;;;;;;6.60;1.10;;;;;;;;;;4873633;29;20040;-63
2023/07/04 07:13:32;;;;;;;2.75;0.85;;;;;;;;;;4875018;29;20055;-63
2023/07/04 07:16:06;;;;;;;2.97;1.00;;;;;;;;;;4874743;29;20032;-63
2023/07/04 07:18:34;;;;;;;8.73;1.58;;;;;;;;;;4875331;29;20047;-63
2023/07/04 07:21:00;;;;;;;3.38;1.10;;;;;;;;;;4874708;29;20047;-63
2023/07/04 07:23:26;;;;;;;5.97;1.40;;;;;;;;;;4875461;29;21301;-63
2023/07/04 07:25:55;;;;;;;4.18;0.90;;;;;;;;;;4875484;29;20036;-63
2023/07/04 07:28:22;;;;;;;6.85;1.25;;;;;;;;;;4875190;29;20385;-63
2023/07/04 07:30:48;;;;;;;4.40;1.17;;;;;;;;;;4875835;29;21055;-63
2023/07/04 07:33:14;;;;;;;6.50;1.25;;;;;;;;;;4875193;29;20169;-63
2023/07/04 07:35:40;;;;;;;4.00;1.00;;;;;;;;;;4858594;29;21089;-63
2023/07/04 07:38:06;;;;;;;6.53;1.20;;;;;;;;;;4874881;29;20593;-63
2023/07/04 07:40:32;;;;;;;3.85;1.40;;;;;;;;;;4874400;29;20599;-63
2023/07/04 07:42:58;;;;;;;8.02;1.67;;;;;;;;;;4877360;29;21454;-63
2023/07/04 07:45:24;;;;;;;8.75;1.27;;;;;;;;;;4877947;29;21971;-63
2023/07/04 07:47:50;;;;;;;5.95;0.93;;;;;;;;;;4879381;29;20737;-63
2023/07/04 07:50:16;;;;;;;7.35;1.35;;;;;;;;;;4879032;29;20194;-63
2023/07/04 07:52:42;;;;;;;6.60;1.60;;;;;;;;;;4878117;29;20024;-63
2023/07/04 07:55:09;;;;;;;9.32;1.10;;;;;;;;;;4877927;29;20020;-63
2023/07/04 07:57:35;;;;;;;7.75;1.17;;;;;;;;;;4877257;29;20028;-63
2023/07/04 08:00:01;;;;;;;6.25;1.25;;;;;;;;;;4878009;29;20048;-63
2023/07/04 08:02:27;;;;;;;8.45;1.75;;;;;;;;;;4878139;29;20107;-64
2023/07/04 08:04:53;;;;;;;7.30;1.30;;;;;;;;;;4877999;29;20024;-63
2023/07/04 08:07:19;;;;;;;7.10;1.15;;;;;;;;;;4878245;29;20734;-63
2023/07/04 08:09:45;;;;;;;3.42;1.17;;;;;;;;;;4878481;29;20066;-63
2023/07/04 08:12:11;;;;;;;5.65;1.10;;;;;;;;;;4877005;29;20060;-63
2023/07/04 08:14:38;;;;;;;9.43;1.25;;;;;;;;;;4877097;29;20071;-63
2023/07/04 08:17:04;;;;;;;6.85;1.45;;;;;;;;;;4877413;29;20046;-63
2023/07/04 08:19:30;;;;;;;8.15;1.70;;;;;;;;;;4877652;29;20040;-64
2023/07/04 08:21:56;;;;;;;6.57;1.15;;;;;;;;;;4879029;29;20065;-63
2023/07/04 08:24:22;;;;;;;4.88;1.40;;;;;;;;;;4877618;29;20039;-64
2023/07/04 08:26:52;;;;;;;6.20;1.40;;;;;;;;;;4879102;29;20037;-64
2023/07/04 08:29:18;;;;;;;5.32;1.42;;;;;;;;;;4878149;29;20036;-62
2023/07/04 08:31:44;;;;;;;6.50;1.25;;;;;;;;;;4878500;29;20159;-63
2023/07/04 08:34:11;;;;;;;6.22;0.95;;;;;;;;;;4878273;29;20410;-64
2023/07/04 08:36:39;;;;;;;6.60;1.50;;;;;;;;;;4878199;29;20143;-63
2023/07/04 08:39:05;;;;;;;5.85;1.08;;;;;;;;;;4877803;29;20042;-63
2023/07/04 08:41:53;;;;;;;7.88;1.85;;;;;;;;;;4877706;29;20024;-63
2023/07/04 08:44:19;;;;;;;7.05;1.48;;;;;;;;;;4877529;29;20034;-63
2023/07/04 08:46:50;;;;;;;6.20;1.98;;;;;;;;;;4877253;29;20485;-63
2023/07/04 08:49:28;;;;;;;10.68;1.83;;;;;;;;;;4877896;29;20111;-63
2023/07/04 08:52:02;;;;;;;8.93;1.83;;;;;;;;;;4877707;29;20028;-63
2023/07/04 08:54:28;;;;;;;8.05;1.60;;;;;;;;;;4877616;29;20112;-63
2023/07/04 08:56:56;;;;;;;9.82;1.80;;;;;;;;;;4877671;29;20515;-62
2023/07/04 08:59:29;;;;;;;7.10;1.75;;;;;;;;;;4878314;29;20666;-62
2023/07/04 09:01:55;;;;;;;;;;;;;;;;;;4878157;29;20036;-63
2023/07/04 09:04:21;;;;;;;9.07;2.38;;;;;;;;;;4877926;29;19926;-63
2023/07/04 09:15:38;;;;;;;11.70;2.58;;;;;;;;;;4999650;23;20071;-61
2023/07/04 09:26:07;;;;;;;10.82;2.40;;;;;;;;;;5049043;23;20071;-62
2023/07/04 09:28:34;;;;;;;7.40;1.90;;;;;;;;;;4890831;29;20046;-63
2023/07/04 09:31:00;;;;;;;13.88;2.70;;;;;;;;;;4890652;29;21687;-63
2023/07/04 09:33:30;;;;;;;9.48;2.08;;;;;;;;;;4890337;29;20066;-63
2023/07/04 09:36:00;;;;;;;8.18;2.00;;;;;;;;;;4891284;29;20044;-63
2023/07/04 09:38:26;;;;;;;10.55;2.38;;;;;;;;;;4890763;29;20088;-63
2023/07/04 09:40:54;;;;;;;12.20;2.90;;;;;;;;;;4890827;29;20102;-63
2023/07/04 09:43:30;;;;;;;11.30;2.17;;;;;;;;;;4890809;29;20043;-63
2023/07/04 09:46:14;;;;;;;6.05;1.60;;;;;;;;;;4889979;29;20059;-63
2023/07/04 09:48:40;;;;;;;8.45;1.75;;;;;;;;;;4889221;29;20039;-63
2023/07/04 09:51:18;;;;;;;6.70;1.60;;;;;;;;;;4891050;29;20032;-63
2023/07/04 09:53:44;;;;;;;5.72;1.58;;;;;;;;;;4886923;29;20604;-63
2023/07/04 09:56:11;;;;;;;8.32;2.03;;;;;;;;;;4890144;29;21922;-63
2023/07/04 09:58:37;;;;;;;7.20;1.92;;;;;;;;;;4890117;29;20734;-62
2023/07/04 10:01:14;;;;;;;11.35;1.95;;;;;;;;;;4890039;29;20067;-62
2023/07/04 10:03:41;;;;;;;8.77;1.65;;;;;;;;;;4891318;29;20043;-63
2023/07/04 10:06:09;;;;;;;6.38;1.60;;;;;;;;;;4890676;29;20052;-62
2023/07/04 10:08:53;;;;;;;12.35;1.63;;;;;;;;;;4891363;29;20036;-62
2023/07/04 10:11:26;;;;;;;9.07;1.50;;;;;;;;;;4890968;29;20071;-63
2023/07/04 10:14:18;;;;;;;7.88;1.52;;;;;;;;;;4891385;29;20047;-63
2023/07/04 10:16:47;;;;;;;9.18;1.77;;;;;;;;;;4890495;29;20035;-62
2023/07/04 10:19:14;;;;;;;8.98;1.52;;;;;;;;;;4894317;29;20116;-62
2023/07/04 10:21:41;;;;;;;7.22;1.45;;;;;;;;;;4893999;29;20016;-62
2023/07/04 10:24:08;;;;;;;6.75;1.80;;;;;;;;;;4893244;29;21081;-63
2023/07/04 10:26:35;;;;;;;7.13;1.50;;;;;;;;;;4889290;29;20039;-63
2023/07/04 10:29:01;;;;;;;10.93;1.92;;;;;;;;;;4889043;29;20662;-62
2023/07/04 10:31:28;;;;;;;6.95;1.80;;;;;;;;;;4888035;29;20058;-63
2023/07/04 10:33:57;;;;;;;8.57;1.80;;;;;;;;;;4871875;29;20047;-62
2023/07/04 10:36:28;;;;;;;10.25;1.92;;;;;;;;;;4887668;29;21915;-63
2023/07/04 10:38:57;;;;;;;8.23;1.88;;;;;;;;;;4885985;29;20087;-62
2023/07/04 10:41:30;;;;;;;7.78;1.73;;;;;;;;;;4886892;29;20142;-63
2023/07/04 10:44:02;;;;;;;7.20;1.50;;;;;;;;;;4887834;29;20028;-63
2023/07/04 10:46:30;;;;;;;5.95;1.55;;;;;;;;;;4887069;29;20534;-63
2023/07/04 10:49:04;;;;;;;8.00;1.63;;;;;;;;;;4887955;29;20042;-63
2023/07/04 10:51:33;;;;;;;9.70;2.15;;;;;;;;;;4887238;29;20084;-63
2023/07/04 10:53:59;;;;;;;11.00;2.47;;;;;;;;;;4886531;29;20040;-63
2023/07/04 10:56:27;;;;;;;10.23;2.22;;;;;;;;;;4888372;29;20040;-63
2023/07/04 10:58:56;;;;;;;10.82;2.03;;;;;;;;;;4888689;29;20546;-62
2023/07/04 11:01:25;;;;;;;8.77;1.95;;;;;;;;;;4888642;29;20028;-63
2023/07/04 11:03:58;;;;;;;9.68;2.50;;;;;;;;;;4888684;29;20031;-62
2023/07/04 11:06:37;;;;;;;8.32;1.90;;;;;;;;;;4877549;29;20032;-63
2023/07/04 11:09:06;;;;;;;8.63;2.03;;;;;;;;;;4888031;29;20040;-62
2023/07/04 11:11:32;;;;;;;8.80;1.73;;;;;;;;;;4889031;29;21504;-62
2023/07/04 11:14:06;;;;;;;6.00;1.48;;;;;;;;;;4888000;29;20036;-63
2023/07/04 11:16:34;;;;;;;8.07;1.90;;;;;;;;;;4888601;29;20024;-63
2023/07/04 11:19:06;;;;;;;7.68;1.80;;;;;;;;;;4891749;29;20063;-63
2023/07/04 11:21:32;;;;;;;8.13;2.20;;;;;;;;;;4891238;29;20162;-63
2023/07/04 11:24:10;;;;;;;7.28;1.88;;;;;;;;;;4890065;29;20459;-63
2023/07/04 11:26:55;;;;;;;4.93;1.30;;;;;;;;;;4890562;29;20062;-62
2023/07/04 11:29:22;;;;;;;6.30;1.52;;;;;;;;;;4891551;29;20078;-62
2023/07/04 11:32:04;;;;;;;9.50;1.63;;;;;;;;;;4892574;29;20091;-63
2023/07/04 11:34:48;;;;;;;9.30;1.58;;;;;;;;;;4876932;29;20414;-63
2023/07/04 11:37:18;;;;;;;7.28;1.98;;;;;;;;;;4893521;29;20035;-63
2023/07/04 11:39:48;;;;;;;9.90;1.95;;;;;;;;;;4894760;29;20031;-63
2023/07/04 11:42:19;;;;;;;7.25;1.80;;;;;;;;;;4896338;29;20066;-63
2023/07/04 11:44:48;;;;;;;11.07;1.85;;;;;;;;;;4896061;29;20028;-63
2023/07/04 11:47:15;;;;;;;9.63;1.63;;;;;;;;;;4899132;29;20043;-63
2023/07/04 11:49:53;;;;;;;6.57;1.70;;;;;;;;;;4899584;29;20028;-63
2023/07/04 11:52:26;;;;;;;8.32;1.90;;;;;;;;;;4897995;29;20051;-63
2023/07/04 11:54:57;;;;;;;7.78;2.05;;;;;;;;;;4898934;29;20115;-63
2023/07/04 11:57:23;;;;;;;9.95;1.67;;;;;;;;;;4896172;29;20036;-62
2023/07/04 11:59:49;;;;;;;7.47;1.75;;;;;;;;;;4893629;29;20099;-63
2023/07/04 12:02:26;;;;;;;10.43;1.60;;;;;;;;;;4893853;29;20062;-62
2023/07/04 12:04:52;;;;;;;8.70;1.92;;;;;;;;;;4893083;29;20035;-63
2023/07/04 12:07:37;;;;;;;11.18;2.15;;;;;;;;;;4893153;29;20380;-63
2023/07/04 12:10:09;;;;;;;4.97;1.58;;;;;;;;;;4893835;29;20046;-63
2023/07/04 12:12:37;;;;;;;9.18;2.08;;;;;;;;;;4894021;29;20055;-63
2023/07/04 12:15:14;;;;;;;8.77;1.60;;;;;;;;;;4894178;29;20403;-62
2023/07/04 12:17:41;;;;;;;7.88;1.80;;;;;;;;;;4893405;29;20534;-64
2023/07/04 12:20:11;;;;;;;7.18;2.10;;;;;;;;;;4893544;29;20043;-63
2023/07/04 12:22:41;;;;;;;9.52;2.08;;;;;;;;;;4892279;29;20192;-63
2023/07/04 12:25:08;;;;;;;11.30;2.30;;;;;;;;;;4893324;29;20048;-63
2023/07/04 12:27:34;;;;;;;11.63;2.53;;;;;;;;;;4893516;29;20043;-63
2023/07/04 12:30:02;;;;;;;5.55;1.33;;;;;;;;;;4892187;29;20040;-63
2023/07/04 12:32:28;;;;;;;6.85;1.42;;;;;;;;;;4893170;29;20092;-63
2023/07/04 12:34:54;;;;;;;8.70;2.08;;;;;;;;;;4892692;29;20040;-63
2023/07/04 12:37:27;;;;;;;8.27;1.85;;;;;;;;;;4875396;29;20885;-63
2023/07/04 12:39:53;;;;;;;4.95;1.40;;;;;;;;;;4893081;29;20048;-63
2023/07/04 12:42:26;;;;;;;8.38;1.60;;;;;;;;;;4892622;29;20044;-63
2023/07/04 12:44:52;;;;;;;8.95;1.90;;;;;;;;;;4892274;29;20131;-63
2023/07/04 12:47:21;;;;;;;6.45;1.90;;;;;;;;;;4892210;29;20039;-63
2023/07/04 12:49:48;;;;;;;9.02;1.98;;;;;;;;;;4892543;29;20060;-63
2023/07/04 12:52:14;;;;;;;9.90;1.83;;;;;;;;;;4893379;29;20043;-62
2023/07/04 12:54:41;;;;;;;9.07;1.65;;;;;;;;;;4892713;29;20040;-63
2023/07/04 12:57:12;;;;;;;8.88;1.60;;;;;;;;;;4893545;29;20044;-63
2023/07/04 12:59:39;;;;;;;7.15;1.80;;;;;;;;;;4898375;29;20035;-63
2023/07/04 13:02:14;;;;;;;9.73;1.73;;;;;;;;;;4897223;29;20046;-63
2023/07/04 13:04:40;;;;;;;5.97;2.08;;;;;;;;;;4897734;29;20035;-63
2023/07/04 13:07:06;;;;;;;10.70;1.90;;;;;;;;;;4898622;29;20070;-63
2023/07/04 13:09:32;;;;;;;7.28;1.40;;;;;;;;;;4898449;29;20036;-63
2023/07/04 13:11:59;;;;;;;9.60;2.20;;;;;;;;;;4897255;29;20040;-63
2023/07/04 13:14:29;;;;;;;8.10;1.90;;;;;;;;;;4897636;29;20040;-62
2023/07/04 13:17:16;;;;;;;7.40;2.05;;;;;;;;;;4897571;29;20036;-63
2023/07/04 13:19:42;;;;;;;11.45;1.98;;;;;;;;;;4897695;29;20080;-63
2023/07/04 13:22:13;;;;;;;9.15;2.33;;;;;;;;;;4897303;29;20122;-63
2023/07/04 13:24:40;;;;;;;7.70;2.17;;;;;;;;;;4895939;29;20067;-63
2023/07/04 13:27:16;;;;;;;7.35;1.90;;;;;;;;;;4898264;29;20707;-62
2023/07/04 13:30:08;;;;;;;8.57;2.33;;;;;;;;;;4896399;29;20119;-63
2023/07/04 13:32:36;;;;;;;8.50;1.67;;;;;;;;;;4894276;29;20055;-63
2023/07/04 13:35:21;;;;;;;8.90;1.88;;;;;;;;;;4898196;29;20036;-63
2023/07/04 13:37:47;;;;;;;8.20;2.03;;;;;;;;;;4893144;29;20035;-63
2023/07/04 13:40:13;;;;;;;11.55;2.10;;;;;;;;;;4892604;29;20044;-63
2023/07/04 13:42:39;;;;;;;9.75;1.90;;;;;;;;;;4893927;29;20036;-63
2023/07/04 13:45:05;;;;;;;9.27;1.88;;;;;;;;;;4893411;29;20032;-63
2023/07/04 13:47:31;;;;;;;6.78;1.50;;;;;;;;;;4893916;29;20042;-63
2023/07/04 13:50:00;;;;;;;7.00;1.75;;;;;;;;;;4893858;29;20047;-63
2023/07/04 13:52:26;;;;;;;8.63;2.03;;;;;;;;;;4893082;29;20115;-63
2023/07/04 13:54:52;;;;;;;6.70;1.67;;;;;;;;;;4892943;29;20794;-63
2023/07/04 13:57:19;;;;;;;7.60;1.67;;;;;;;;;;4893740;29;20043;-63
2023/07/04 13:59:47;;;;;;;7.93;1.90;;;;;;;;;;4893434;29;20040;-63
2023/07/04 14:02:14;;;;;;;7.25;1.92;;;;;;;;;;4892489;29;20495;-63
2023/07/04 14:04:40;;;;;;;10.18;2.33;;;;;;;;;;4892810;29;20044;-63
2023/07/04 14:07:06;;;;;;;10.00;2.03;;;;;;;;;;4892681;29;20130;-63
2023/07/04 14:09:32;;;;;;;9.23;1.90;;;;;;;;;;4891888;29;20806;-63
2023/07/04 14:11:58;;;;;;;7.47;1.70;;;;;;;;;;4891859;29;20590;-63
2023/07/04 14:14:25;;;;;;;10.57;1.80;;;;;;;;;;4891303;29;20696;-63
2023/07/04 14:16:51;;;;;;;7.43;1.95;;;;;;;;;;4892133;29;20039;-63
2023/07/04 14:19:17;;;;;;;12.57;2.08;;;;;;;;;;4877890;29;20460;-63
2023/07/04 14:21:43;;;;;;;7.47;2.20;;;;;;;;;;4891855;29;21788;-63
2023/07/04 14:24:09;;;;;;;9.82;1.88;;;;;;;;;;4892500;29;21651;-63
2023/07/04 14:26:35;;;;;;;9.90;2.05;;;;;;;;;;4892859;29;21814;-63
2023/07/04 14:29:01;;;;;;;6.90;1.85;;;;;;;;;;4892276;29;21254;-63
2023/07/04 14:31:28;;;;;;;8.02;1.95;;;;;;;;;;4892045;29;20052;-63
2023/07/04 14:33:55;;;;;;;8.70;2.38;;;;;;;;;;4875673;29;20042;-63
2023/07/04 14:36:21;;;;;;;7.90;1.77;;;;;;;;;;4893072;29;20054;-63
2023/07/04 14:38:47;;;;;;;8.20;1.92;;;;;;;;;;4895249;29;20052;-63
2023/07/04 14:41:13;;;;;;;6.28;1.67;;;;;;;;;;4897019;29;20598;-63
2023/07/04 14:43:40;;;;;;;7.93;2.40;;;;;;;;;;4896238;29;20146;-63
2023/07/04 14:46:06;;;;;;;12.10;2.33;;;;;;;;;;4896556;29;20036;-63
2023/07/04 14:48:32;;;;;;;7.35;1.80;;;;;;;;;;4895886;29;20118;-63
2023/07/04 14:50:59;;;;;;;7.30;1.58;;;;;;;;;;4895388;29;20048;-63
2023/07/04 14:53:26;;;;;;;10.15;1.73;;;;;;;;;;4896045;29;20032;-63
2023/07/04 14:55:58;;;;;;;7.40;1.90;;;;;;;;;;4896204;29;20051;-63
2023/07/04 14:58:24;;;;;;;9.98;2.08;;;;;;;;;;4895866;29;20455;-63
2023/07/04 15:00:50;;;;;;;8.60;1.92;;;;;;;;;;4896604;29;20094;-63
2023/07/04 15:03:16;;;;;;;9.32;2.50;;;;;;;;;;4896139;29;20036;-63
2023/07/04 15:05:42;;;;;;;7.22;1.63;;;;;;;;;;4896672;29;20036;-63